Time;durP1;ratioP1;P1;durP2;ratioP2;P2;SDS_P1;SDS_P2;PMS_P1;PMS_P2;Temp;Humidity;BMP_temperature;BMP_pressure;BME280_temperature;BME280_humidity;BME280_pressure;Samples;Min_cycle;Max_cycle;Signal;HPM_P1;HPM_P2
2023/10/19 00:00:19;;;;;;;11.95;8.60;;;;;;;18.60;42.50;92122.63;6092481;23;20014;-92
2023/10/19 00:02:51;;;;;;;10.07;8.57;;;;;;;18.59;42.66;92121.91;6095913;23;20024;-93
2023/10/19 00:05:18;;;;;;;10.45;8.38;;;;;;;18.59;42.81;92100.00;6093136;23;20014;-94
2023/10/19 00:07:44;;;;;;;10.40;8.27;;;;;;;18.59;42.81;92101.97;6094697;23;20105;-93
2023/10/19 00:10:10;;;;;;;11.45;7.88;;;;;;;18.61;42.50;92107.66;6093528;23;20010;-94
2023/10/19 00:12:36;;;;;;;9.93;7.97;;;;;;;18.59;42.44;92100.00;6093274;23;20458;-93
2023/10/19 00:15:04;;;;;;;10.38;7.93;;;;;;;18.58;42.56;92090.31;6094720;23;20025;-94
2023/10/19 00:17:30;;;;;;;10.18;7.65;;;;;;;18.61;42.82;92078.31;6094162;23;20387;-93
2023/10/19 00:22:40;;;;;;;12.55;8.23;;;;;;;18.61;42.60;92080.31;6097520;23;20480;-93
2023/10/19 00:25:08;;;;;;;11.50;7.97;;;;;;;18.60;42.67;92079.56;6094260;23;20018;-93
2023/10/19 00:27:34;;;;;;;11.05;7.95;;;;;;;18.59;42.66;92069.91;6094172;23;20021;-92
2023/10/19 00:30:06;;;;;;;10.10;8.25;;;;;;;18.58;42.99;92068.41;6094271;23;20021;-93
2023/10/19 00:32:38;;;;;;;9.90;7.75;;;;;;;18.56;42.41;92079.16;6095645;23;20096;-93
2023/10/19 00:35:07;;;;;;;8.27;7.03;;;;;;;18.58;42.41;92067.69;6091081;23;20383;-94
2023/10/19 00:37:42;;;;;;;11.95;7.93;;;;;;;18.58;42.49;92067.69;6069202;23;20021;-93
2023/10/19 00:40:15;;;;;;;9.75;8.10;;;;;;;18.58;42.90;92062.94;6071040;23;20761;-94
2023/10/19 00:42:46;;;;;;;10.13;7.78;;;;;;;18.57;42.64;92053.25;6045862;23;20029;-93
2023/10/19 00:45:13;;;;;;;;;;;;;;;18.61;42.70;92055.66;6068890;23;20026;-92
2023/10/19 00:47:42;;;;;;;9.43;7.57;;;;;;;18.57;42.65;92047.78;6117317;23;19984;-93
2023/10/19 00:50:15;;;;;;;9.05;7.80;;;;;;;18.58;42.43;92043.03;6066524;23;20097;-94
2023/10/19 00:52:49;;;;;;;10.38;7.72;;;;;;;18.54;42.75;92037.94;6069201;23;20018;-93
2023/10/19 00:55:14;;;;;;;9.93;7.28;;;;;;;18.57;42.83;92045.06;6070165;23;20026;-92
2023/10/19 00:57:45;;;;;;;10.57;7.35;;;;;;;18.56;42.52;92031.91;6091554;23;20077;-92
2023/10/19 01:00:11;;;;;;;10.00;7.18;;;;;;;18.56;42.70;92031.91;6039776;23;20022;-93
2023/10/19 01:02:46;;;;;;;8.15;6.57;;;;;;;18.57;42.57;92030.63;6046368;23;20022;-93
2023/10/19 01:05:14;;;;;;;9.00;7.28;;;;;;;18.56;42.58;92029.91;6068044;23;20018;-94
2023/10/19 01:07:44;;;;;;;8.82;7.13;;;;;;;18.56;42.32;92026.44;6093492;23;20022;-94
2023/10/19 01:10:19;;;;;;;;;;;;;;;18.58;42.75;92030.09;6095013;23;20053;-93
2023/10/19 01:12:45;;;;;;;9.18;7.22;;;;;;;18.57;42.74;92027.91;6119054;23;19912;-93
2023/10/19 01:15:18;;;;;;;10.27;7.28;;;;;;;18.54;42.93;92018.78;6092742;23;20065;-93
2023/10/19 01:17:56;;;;;;;8.95;6.32;;;;;;;18.54;42.69;92018.03;6096089;23;20057;-93
2023/10/19 01:20:33;;;;;;;10.07;8.00;;;;;;;18.56;42.58;92008.00;6095382;23;20081;-94
2023/10/19 01:25:34;;;;;;;8.70;6.70;;;;;;;18.54;42.69;92005.09;6117226;23;20029;-94
2023/10/19 01:28:07;;;;;;;8.93;7.07;;;;;;;18.54;42.96;91996.88;6094444;23;20089;-93
2023/10/19 01:30:33;;;;;;;10.50;7.10;;;;;;;18.54;42.67;91999.63;6095000;23;20442;-93
2023/10/19 01:32:59;;;;;;;9.50;6.95;;;;;;;18.54;42.72;91999.63;6093901;23;20018;-93
2023/10/19 01:35:24;;;;;;;8.35;6.57;;;;;;;18.55;42.75;91992.88;6091004;23;20339;-93
2023/10/19 01:37:50;;;;;;;9.05;7.40;;;;;;;18.52;42.53;91988.47;6094551;23;20031;-94
2023/10/19 01:40:20;;;;;;;9.50;7.28;;;;;;;18.53;42.73;91987.19;6093102;23;20018;-94
2023/10/19 01:42:46;;;;;;;7.75;6.30;;;;;;;18.53;42.51;91979.00;6094648;23;20014;-93
2023/10/19 01:45:11;;;;;;;8.60;6.65;;;;;;;18.55;42.66;91970.97;6092628;23;20029;-94
2023/10/19 01:47:37;;;;;;;9.13;6.55;;;;;;;18.55;42.91;91975.72;6094553;23;20017;-93
2023/10/19 01:50:05;;;;;;;9.27;6.63;;;;;;;18.55;42.49;91972.97;6092483;23;20014;-93
2023/10/19 01:52:31;;;;;;;8.07;6.28;;;;;;;18.54;42.42;91974.97;6094670;23;20533;-95
2023/10/19 01:55:04;;;;;;;8.32;6.82;;;;;;;18.54;42.64;91966.78;6093403;23;20041;-93
2023/10/19 01:57:32;;;;;;;9.43;6.85;;;;;;;18.54;42.88;91969.50;6095693;23;20025;-95
2023/10/19 01:59:58;;;;;;;8.20;6.63;;;;;;;18.55;42.76;91970.25;6093863;23;20026;-93
2023/10/19 02:02:23;;;;;;;7.65;6.57;;;;;;;18.53;42.89;91973.53;6092460;23;20025;-93
2023/10/19 02:04:51;;;;;;;8.95;6.47;;;;;;;18.54;42.57;91977.00;6093139;23;20028;-93
2023/10/19 02:07:17;;;;;;;8.45;6.45;;;;;;;18.53;42.65;91975.53;6094924;23;20106;-93
2023/10/19 02:09:43;;;;;;;7.47;5.72;;;;;;;18.55;42.76;91972.97;6096117;23;20097;-93
2023/10/19 02:12:09;;;;;;;8.25;6.13;;;;;;;18.53;42.91;91959.84;6070050;23;20138;-94
2023/10/19 02:14:35;;;;;;;8.10;6.38;;;;;;;18.52;42.77;91955.63;6095409;23;20055;-93
2023/10/19 02:17:02;;;;;;;10.23;6.60;;;;;;;18.53;42.50;91967.31;6095825;23;20043;-94
2023/10/19 02:19:28;;;;;;;6.95;5.60;;;;;;;18.54;42.78;91963.31;6093800;23;20026;-93
2023/10/19 02:21:56;;;;;;;7.55;5.63;;;;;;;18.55;42.46;91948.34;6095738;23;20079;-93
2023/10/19 02:24:21;;;;;;;8.10;6.38;;;;;;;18.54;42.53;91944.88;6095053;23;20024;-93
2023/10/19 02:26:51;;;;;;;10.65;7.13;;;;;;;18.53;42.53;91935.22;6095364;23;20018;-93
2023/10/19 02:29:17;;;;;;;7.13;6.13;;;;;;;18.53;42.65;91934.47;6095492;23;20082;-93
2023/10/19 02:31:43;;;;;;;5.85;5.00;;;;;;;18.54;42.76;91938.69;6070889;23;20022;-93
2023/10/19 02:34:15;;;;;;;7.32;5.70;;;;;;;18.52;42.74;91938.50;6092840;23;20026;-93
2023/10/19 02:36:41;;;;;;;7.05;6.15;;;;;;;18.52;42.63;91931.00;6065241;23;20026;-93
2023/10/19 02:39:10;;;;;;;7.57;5.93;;;;;;;18.51;42.54;91915.88;6040467;23;20024;-94
2023/10/19 02:41:43;;;;;;;6.95;5.80;;;;;;;18.52;42.53;91908.38;6040048;23;20104;-93
2023/10/19 02:46:43;;;;;;;7.05;5.68;;;;;;;18.50;42.74;91908.94;6041670;23;20023;-93
2023/10/19 02:49:13;;;;;;;6.45;5.50;;;;;;;18.50;42.62;91914.41;6039239;23;20134;-92
2023/10/19 02:51:39;;;;;;;8.18;5.85;;;;;;;18.50;42.53;91917.16;6042245;23;20121;-93
2023/10/19 02:54:07;;;;;;;6.57;5.35;;;;;;;18.49;42.72;91921.16;6039775;23;20033;-92
2023/10/19 02:56:35;;;;;;;8.45;5.97;;;;;;;18.49;42.60;91916.41;6039742;23;20019;-94
2023/10/19 02:59:05;;;;;;;6.47;5.50;;;;;;;18.50;42.58;91917.16;6041449;23;20050;-93
2023/10/19 03:01:33;;;;;;;6.05;5.20;;;;;;;18.49;42.55;91913.69;6040495;23;20054;-94
2023/10/19 03:03:59;;;;;;;7.30;5.40;;;;;;;18.48;42.47;91916.97;6040220;23;20026;-93
2023/10/19 03:06:25;;;;;;;8.45;5.90;;;;;;;18.49;42.29;91919.16;6040112;23;20058;-93
2023/10/19 03:08:57;;;;;;;7.88;5.30;;;;;;;18.48;42.31;91914.22;6095671;23;20354;-93
2023/10/19 03:11:24;;;;;;;7.97;5.85;;;;;;;18.50;42.65;91912.41;6094594;23;20101;-93
2023/10/19 03:13:50;;;;;;;8.20;5.82;;;;;;;18.50;42.62;91906.19;6095240;23;20014;-94
2023/10/19 03:16:17;;;;;;;8.38;5.70;;;;;;;18.49;42.23;91905.47;6094282;23;20331;-95
2023/10/19 03:18:44;;;;;;;7.28;5.20;;;;;;;18.49;42.34;91902.72;6094265;23;20014;-93
2023/10/19 03:21:11;;;;;;;7.78;6.13;;;;;;;18.54;42.46;91905.84;6093301;23;20043;-92
2023/10/19 03:23:37;;;;;;;6.88;5.53;;;;;;;18.50;42.52;91908.94;6071440;23;20358;-94
2023/10/19 03:28:47;;;;;;;8.23;4.78;;;;;;;18.58;42.32;91909.69;6099935;23;20518;-95
2023/10/19 03:31:17;;;;;;;43.85;37.42;;;;;;;18.60;42.08;91914.63;6096560;23;20018;-94
2023/10/19 03:33:47;;;;;;;8.73;6.50;;;;;;;18.64;42.07;91906.75;6095939;23;20025;-91
2023/10/19 03:36:13;;;;;;;6.07;5.07;;;;;;;18.66;42.04;91901.47;6095535;23;20022;-93
2023/10/19 03:38:40;;;;;;;25.80;18.95;;;;;;;18.67;41.98;91902.94;6096042;23;20484;-93
2023/10/19 03:41:08;;;;;;;15.75;7.90;;;;;;;18.66;42.19;91885.78;6096103;23;20022;-93
2023/10/19 03:43:35;;;;;;;22.35;10.05;;;;;;;18.70;42.18;91894.34;6099599;23;20021;-93
2023/10/19 03:46:11;;;;;;;11.10;8.82;;;;;;;18.72;42.25;91874.66;6052669;23;20035;-92
2023/10/19 03:48:38;;;;;;;15.77;9.32;;;;;;;18.73;41.62;91876.09;5958295;23;20487;-94
2023/10/19 03:51:09;;;;;;;14.45;11.00;;;;;;;18.67;41.94;91878.28;6007234;23;20015;-92
2023/10/19 03:53:38;;;;;;;17.38;11.80;;;;;;;18.62;41.87;91871.03;6054054;23;20020;-91
2023/10/19 03:56:10;;;;;;;14.82;11.02;;;;;;;18.59;41.95;91870.09;5983645;23;20023;-92
2023/10/19 03:58:38;;;;;;;15.20;10.45;;;;;;;18.62;41.73;91874.47;5983802;23;20023;-91
2023/10/19 04:01:05;;;;;;;16.42;10.02;;;;;;;18.61;42.21;91870.28;6006400;23;20019;-93
2023/10/19 04:03:31;;;;;;;13.15;9.80;;;;;;;18.60;42.14;91868.84;5977770;23;20027;-94
2023/10/19 04:06:00;;;;;;;409.17;46.95;;;;;;;18.56;41.01;91862.25;6008351;23;20050;-92
2023/10/19 04:08:26;;;;;;;105.80;16.45;;;;;;;18.46;40.10;91856.56;6006899;23;20060;-92
2023/10/19 04:11:08;;;;;;;53.75;13.23;;;;;;;18.44;39.21;91851.66;5982561;23;20094;-92
2023/10/19 04:13:35;;;;;;;70.72;12.35;;;;;;;18.35;38.66;91856.97;5981797;23;20034;-88
2023/10/19 04:16:00;;;;;;;44.40;9.98;;;;;;;18.26;38.46;91852.75;6004935;23;20054;-89
2023/10/19 04:18:27;;;;;;;40.85;10.35;;;;;;;18.27;38.37;91850.75;6002116;23;20054;-91
2023/10/19 04:23:18;;;;;;;32.45;9.63;;;;;;;18.20;37.88;91848.75;6059556;23;20038;-89
2023/10/19 04:25:45;;;;;;;34.10;10.35;;;;;;;18.15;37.92;91848.41;6052596;23;20101;-90
2023/10/19 04:28:13;;;;;;;20.55;8.95;;;;;;;18.10;37.76;91843.84;6037345;23;20022;-89
2023/10/19 04:30:39;;;;;;;22.40;8.90;;;;;;;18.10;37.49;91843.09;6081535;23;20025;-92
2023/10/19 04:33:09;;;;;;;15.82;8.10;;;;;;;18.04;37.50;91831.59;6090595;23;20049;-89
2023/10/19 04:35:36;;;;;;;25.40;9.35;;;;;;;18.07;37.42;91833.97;6069557;23;20026;-91
2023/10/19 04:38:06;;;;;;;31.02;11.48;;;;;;;18.07;37.40;91825.78;6092558;23;20014;-91
2023/10/19 04:40:31;;;;;;;29.45;12.35;;;;;;;18.13;38.03;91822.88;6068792;23;20037;-90
2023/10/19 04:42:57;;;;;;;27.48;9.90;;;;;;;18.24;38.26;91825.22;6063802;23;20021;-90
2023/10/19 04:45:23;;;;;;;31.77;11.27;;;;;;;18.30;39.46;91825.78;6082241;23;20374;-90
2023/10/19 04:47:58;;;;;;;62.20;30.95;;;;;;;18.31;39.65;91819.03;6091972;23;20052;-90
2023/10/19 04:50:23;;;;;;;46.72;25.00;;;;;;;18.29;39.83;91818.84;6094555;23;20021;-92
2023/10/19 04:52:49;;;;;;;60.30;33.17;;;;;;;18.31;39.69;91821.03;6094597;23;20084;-93
2023/10/19 04:55:14;;;;;;;91.47;45.17;;;;;;;18.31;39.70;91812.81;6093868;23;20028;-92
2023/10/19 04:57:40;;;;;;;134.70;76.50;;;;;;;18.40;39.66;91812.28;6092786;23;20049;-92
2023/10/19 05:00:08;;;;;;;146.45;81.32;;;;;;;18.36;39.88;91818.13;6093424;23;20022;-92
2023/10/19 05:02:36;;;;;;;;;;;;;;;18.41;39.61;91813.72;6096578;23;20106;-92
2023/10/19 05:05:01;;;;;;;150.00;81.47;;;;;;;18.41;39.45;91814.44;6135883;23;20273;-91
2023/10/19 05:07:27;;;;;;;243.77;129.10;;;;;;;18.41;39.56;91821.91;6074602;23;20025;-91
2023/10/19 05:09:53;;;;;;;262.10;144.10;;;;;;;18.43;40.05;91822.84;6095422;23;20438;-90
2023/10/19 05:12:21;;;;;;;251.60;131.68;;;;;;;18.41;39.90;91810.97;6093971;23;20018;-94
2023/10/19 05:14:52;;;;;;;196.48;95.60;;;;;;;18.49;40.55;91812.44;6097561;23;20028;-93
2023/10/19 05:17:21;;;;;;;254.52;128.15;;;;;;;18.50;39.85;91822.09;6092651;23;20060;-91
2023/10/19 05:19:46;;;;;;;265.65;131.35;;;;;;;18.51;39.82;91822.84;6097743;23;20021;-92
2023/10/19 05:22:12;;;;;;;214.70;118.82;;;;;;;18.58;39.91;91816.63;6095344;23;20326;-92
2023/10/19 05:24:37;;;;;;;249.60;131.95;;;;;;;18.50;39.95;91813.91;6070627;23;20710;-91
2023/10/19 05:27:03;;;;;;;246.85;135.68;;;;;;;18.50;40.01;91824.09;6071268;23;20038;-94
2023/10/19 05:29:31;;;;;;;251.93;136.68;;;;;;;18.48;40.14;91827.41;6092762;23;20679;-92
2023/10/19 05:31:57;;;;;;;283.05;154.63;;;;;;;18.52;39.95;91827.03;6095957;23;20044;-92
2023/10/19 05:34:29;;;;;;;271.98;157.73;;;;;;;18.54;40.30;91810.06;6094582;23;20116;-91
2023/10/19 05:36:58;;;;;;;272.13;152.65;;;;;;;18.55;40.56;91823.19;6073128;23;20021;-90
2023/10/19 05:39:27;;;;;;;286.05;161.55;;;;;;;18.57;40.36;91825.38;6095992;23;20096;-92
2023/10/19 05:41:55;;;;;;;302.95;184.10;;;;;;;18.55;40.24;91822.47;6074660;23;20133;-91
2023/10/19 05:44:21;;;;;;;337.70;208.38;;;;;;;18.56;40.63;91830.13;6099346;23;20018;-89
2023/10/19 05:46:46;;;;;;;341.58;208.27;;;;;;;18.58;40.66;91832.31;6096596;23;20025;-92
2023/10/19 05:49:12;;;;;;;339.92;206.63;;;;;;;18.56;40.48;91832.13;6098409;23;20038;-91
2023/10/19 05:51:39;;;;;;;327.80;198.23;;;;;;;18.56;40.77;91843.09;6098796;23;20022;-92
2023/10/19 05:54:04;;;;;;;327.40;203.20;;;;;;;18.61;40.82;91833.97;6097931;23;20259;-92
2023/10/19 05:56:34;;;;;;;311.02;180.77;;;;;;;18.57;40.21;91833.59;6097162;23;20026;-90
2023/10/19 05:59:00;;;;;;;145.35;79.05;;;;;;;18.53;39.28;91830.50;6099950;23;20053;-90
2023/10/19 06:01:26;;;;;;;89.28;48.47;;;;;;;18.46;38.94;91831.94;6120623;23;20022;-93
2023/10/19 06:03:52;;;;;;;84.97;36.50;;;;;;;18.38;38.95;91831.97;6098708;23;20017;-90
2023/10/19 06:06:19;;;;;;;125.47;48.80;;;;;;;18.41;39.41;91830.13;6099703;23;20324;-92
2023/10/19 06:08:45;;;;;;;154.07;63.20;;;;;;;18.46;39.37;91835.41;6077184;23;20038;-91
2023/10/19 06:11:10;;;;;;;154.95;88.38;;;;;;;18.58;39.72;91819.38;6110179;23;20020;-92
2023/10/19 06:13:36;;;;;;;207.23;112.82;;;;;;;18.63;39.97;91825.94;6095541;23;20022;-90
2023/10/19 06:16:02;;;;;;;199.20;115.72;;;;;;;18.66;40.01;91833.03;6070856;23;20093;-91
2023/10/19 06:18:29;;;;;;;188.27;110.03;;;;;;;18.65;39.94;91837.06;6094450;23;20018;-93
2023/10/19 06:20:57;;;;;;;177.10;102.70;;;;;;;18.74;40.17;91828.28;6100095;23;20032;-94
2023/10/19 06:23:23;;;;;;;166.73;98.72;;;;;;;18.71;40.02;91827.38;6108977;23;20025;-92
2023/10/19 06:25:51;;;;;;;153.50;94.82;;;;;;;18.82;39.86;91827.00;6097197;23;20024;-92
2023/10/19 06:28:17;;;;;;;149.82;89.57;;;;;;;18.73;40.06;91826.84;6097608;23;20110;-91
2023/10/19 06:30:45;;;;;;;132.85;84.82;;;;;;;18.70;40.43;91817.72;6093397;23;20025;-94
2023/10/19 06:33:12;;;;;;;152.05;89.35;;;;;;;18.73;40.27;91815.88;6092991;23;20030;-94
2023/10/19 06:35:38;;;;;;;212.82;127.03;;;;;;;18.66;40.58;91819.34;6107213;23;20022;-94
2023/10/19 06:38:09;;;;;;;213.30;125.80;;;;;;;18.65;40.43;91826.13;6096700;23;20026;-95
2023/10/19 06:40:37;;;;;;;214.40;132.60;;;;;;;18.63;40.47;91818.44;6103695;23;20017;-92
2023/10/19 06:43:06;;;;;;;221.57;133.43;;;;;;;18.64;40.37;91810.97;6096030;23;20327;-93
2023/10/19 06:45:32;;;;;;;238.30;140.63;;;;;;;18.65;40.57;91815.16;6100598;23;20022;-93
2023/10/19 06:47:57;;;;;;;248.05;147.02;;;;;;;18.66;40.08;91820.09;6074209;23;20389;-91
2023/10/19 06:50:24;;;;;;;134.50;73.72;;;;;;;18.62;39.97;91806.03;6095259;23;20030;-90
2023/10/19 06:53:16;;;;;;;117.97;59.80;;;;;;;18.54;40.10;91819.00;6074655;23;20021;-92
2023/10/19 06:55:45;;;;;;;138.13;72.57;;;;;;;18.57;40.42;91819.91;6127575;23;20022;-93
2023/10/19 06:58:12;;;;;;;175.98;90.07;;;;;;;18.66;39.94;91813.88;6127664;23;20026;-93
2023/10/19 07:00:42;;;;;;;167.88;95.88;;;;;;;18.63;40.93;91810.25;6102434;23;20721;-92
2023/10/19 07:03:07;;;;;;;161.07;94.50;;;;;;;18.62;40.54;91810.81;6101530;23;20026;-91
2023/10/19 07:05:34;;;;;;;176.93;94.88;;;;;;;18.73;40.20;91804.94;6126490;23;20032;-91
2023/10/19 07:08:01;;;;;;;149.73;81.22;;;;;;;18.62;40.75;91816.28;6099807;23;20045;-91
2023/10/19 07:10:29;;;;;;;152.52;79.55;;;;;;;18.67;41.00;91813.34;6100140;23;20520;-91
2023/10/19 07:12:55;;;;;;;169.43;84.38;;;;;;;18.65;40.91;91804.22;6126794;23;20773;-91
2023/10/19 07:15:22;;;;;;;154.27;78.03;;;;;;;18.67;40.94;91799.66;6111651;23;20070;-92
2023/10/19 07:17:56;;;;;;;145.52;80.60;;;;;;;18.70;41.03;91806.03;6099429;23;20028;-92
2023/10/19 07:20:25;;;;;;;151.90;72.63;;;;;;;18.74;40.64;91806.41;6119236;23;20383;-92
2023/10/19 07:22:53;;;;;;;154.40;76.32;;;;;;;18.71;40.96;91802.00;6084031;23;20025;-93
2023/10/19 07:25:26;;;;;;;128.95;70.70;;;;;;;18.69;40.32;91804.56;6099473;23;20022;-94
2023/10/19 07:28:00;;;;;;;130.63;64.72;;;;;;;18.66;40.60;91805.69;6108217;23;20017;-93
2023/10/19 07:30:26;;;;;;;122.78;65.05;;;;;;;18.66;41.04;91800.94;6096632;23;20021;-91
2023/10/19 07:32:58;;;;;;;119.68;58.65;;;;;;;18.67;41.23;91807.13;6098106;23;20044;-91
2023/10/19 07:35:26;;;;;;;135.40;65.25;;;;;;;18.67;41.01;91810.59;6097573;23;20052;-91
2023/10/19 07:37:51;;;;;;;114.22;58.65;;;;;;;18.70;41.22;91806.03;6122875;23;20021;-92
2023/10/19 07:40:18;;;;;;;108.03;59.90;;;;;;;18.74;41.38;91807.13;6109875;23;20026;-93
2023/10/19 07:42:51;;;;;;;125.47;62.20;;;;;;;18.74;41.59;91806.41;6070818;23;20025;-93
2023/10/19 07:45:19;;;;;;;115.68;61.13;;;;;;;18.72;41.26;91804.22;6074944;23;20076;-95
2023/10/19 07:47:45;;;;;;;110.07;58.53;;;;;;;18.79;41.55;91800.72;6069393;23;20017;-92
2023/10/19 07:50:17;;;;;;;113.07;56.75;;;;;;;18.82;40.99;91802.38;6094650;23;20018;-93
2023/10/19 07:52:46;;;;;;;103.88;56.97;;;;;;;18.82;41.06;91805.09;6100101;23;20018;-90
2023/10/19 07:55:11;;;;;;;118.28;61.88;;;;;;;18.83;40.96;91817.50;6071451;23;20104;-90
2023/10/19 07:57:38;;;;;;;110.53;57.30;;;;;;;18.79;41.16;91814.41;6105811;23;20116;-92
2023/10/19 08:00:10;;;;;;;107.63;59.13;;;;;;;18.77;41.48;91813.50;6082075;23;20074;-92
2023/10/19 08:02:37;;;;;;;137.70;75.88;;;;;;;18.83;40.67;91809.31;6120584;23;20044;-91
2023/10/19 08:05:06;;;;;;;153.52;74.95;;;;;;;18.77;41.63;91806.03;6096961;23;20014;-90
2023/10/19 08:07:36;;;;;;;145.70;67.30;;;;;;;18.80;41.56;91810.41;6074394;23;20018;-92
2023/10/19 08:10:05;;;;;;;144.05;70.43;;;;;;;18.80;41.26;91804.19;6048973;23;20416;-90
2023/10/19 08:12:30;;;;;;;121.47;65.15;;;;;;;18.79;41.23;91810.94;6049157;23;20086;-90
2023/10/19 08:14:57;;;;;;;112.82;57.28;;;;;;;18.83;41.07;91812.03;6056065;23;20023;-90
2023/10/19 08:17:23;;;;;;;91.97;52.75;;;;;;;18.81;41.51;91825.53;6029548;23;20062;-93
2023/10/19 08:19:48;;;;;;;96.22;52.13;;;;;;;18.78;41.46;91815.69;6060244;23;20027;-92
2023/10/19 08:22:15;;;;;;;90.32;48.50;;;;;;;18.78;41.37;91810.22;6043388;23;20114;-92
2023/10/19 08:24:43;;;;;;;84.95;49.10;;;;;;;18.83;41.45;91819.53;6058061;23;20397;-92
2023/10/19 08:27:10;;;;;;;108.18;60.05;;;;;;;18.84;41.82;91810.00;6078322;23;20816;-90
2023/10/19 08:29:39;;;;;;;106.03;57.65;;;;;;;18.86;40.97;91810.19;6061375;23;20023;-91
2023/10/19 08:32:04;;;;;;;112.20;59.97;;;;;;;18.84;41.39;91805.25;6083039;23;20027;-91
2023/10/19 08:34:35;;;;;;;108.03;56.78;;;;;;;18.86;41.47;91806.72;6081147;23;20027;-91
2023/10/19 08:37:02;;;;;;;103.97;52.38;;;;;;;18.85;41.10;91805.97;6058659;23;20423;-91
2023/10/19 08:39:27;;;;;;;88.45;50.88;;;;;;;18.85;41.43;91800.50;6003355;23;20027;-92
2023/10/19 08:41:53;;;;;;;110.40;52.35;;;;;;;18.83;41.90;91808.56;6084185;23;20026;-92
2023/10/19 08:44:19;;;;;;;136.98;56.53;;;;;;;18.86;41.39;91806.72;6101364;23;20018;-91
2023/10/19 08:46:45;;;;;;;133.05;53.17;;;;;;;18.85;41.42;91808.72;6102413;23;20018;-91
2023/10/19 08:49:15;;;;;;;117.70;53.67;;;;;;;18.86;41.14;91801.97;6096074;23;20068;-91
2023/10/19 08:51:44;;;;;;;107.25;45.63;;;;;;;18.88;41.41;91799.41;6100000;23;20078;-90
2023/10/19 08:54:10;;;;;;;87.93;44.45;;;;;;;18.88;41.54;91791.19;6100954;23;20330;-91
2023/10/19 08:56:37;;;;;;;104.45;43.88;;;;;;;18.92;41.14;91797.03;6099791;23;20076;-91
2023/10/19 08:59:03;;;;;;;93.65;39.00;;;;;;;18.86;41.14;91801.97;6103350;23;20022;-91
2023/10/19 09:01:31;;;;;;;91.93;41.42;;;;;;;18.84;41.64;91794.31;6079909;23;20064;-91
2023/10/19 09:04:01;;;;;;;106.35;41.00;;;;;;;18.87;41.33;91797.94;6104481;23;20010;-91
2023/10/19 09:06:31;;;;;;;96.10;42.60;;;;;;;18.86;41.69;91804.69;6098462;23;20029;-91
2023/10/19 09:08:57;;;;;;;95.47;41.42;;;;;;;18.87;41.72;91799.97;6101548;23;20080;-92
2023/10/19 09:11:24;;;;;;;93.32;40.83;;;;;;;18.85;41.67;91792.28;6101814;23;20025;-92
2023/10/19 09:13:53;;;;;;;114.65;42.13;;;;;;;18.88;41.63;91798.69;6103285;23;20033;-91
2023/10/19 09:16:23;;;;;;;100.80;39.60;;;;;;;18.87;41.37;91795.22;6099362;23;20826;-91
2023/10/19 09:18:50;;;;;;;88.10;39.08;;;;;;;18.95;41.78;91804.13;6106837;23;20080;-90
2023/10/19 09:21:28;;;;;;;72.97;32.47;;;;;;;18.84;40.92;91808.00;6080514;23;20434;-91
2023/10/19 09:23:55;;;;;;;70.35;25.83;;;;;;;18.74;40.64;91801.66;6092980;23;20049;-92
2023/10/19 09:26:21;;;;;;;73.03;20.88;;;;;;;18.73;40.40;91800.19;6173453;23;20028;-93
2023/10/19 09:28:50;;;;;;;49.05;17.48;;;;;;;18.72;40.66;91798.00;6094242;23;20014;-91
2023/10/19 09:31:35;;;;;;;58.42;20.30;;;;;;;18.75;40.89;91796.91;6163509;23;20030;-92
2023/10/19 09:34:03;;;;;;;65.03;24.33;;;;;;;18.76;40.83;91795.63;6111060;23;20021;-92
2023/10/19 09:36:29;;;;;;;51.88;23.15;;;;;;;18.79;41.13;91800.72;6095584;23;20024;-92
2023/10/19 09:38:57;;;;;;;50.30;25.75;;;;;;;18.80;41.54;91798.72;6166738;23;20031;-91
2023/10/19 09:41:30;;;;;;;47.58;25.05;;;;;;;18.81;42.04;91794.69;6136451;23;20030;-92
2023/10/19 09:44:09;;;;;;;46.47;24.45;;;;;;;18.83;41.96;91798.34;6114366;23;20029;-92
2023/10/19 09:46:41;;;;;;;60.13;24.92;;;;;;;18.83;41.84;91797.63;6142523;23;20013;-91
2023/10/19 09:49:08;;;;;;;57.88;28.42;;;;;;;18.88;41.95;91787.72;6137918;23;20025;-93
2023/10/19 09:51:33;;;;;;;70.78;33.40;;;;;;;18.90;41.47;91785.16;6107796;23;20469;-93
2023/10/19 09:54:11;;;;;;;75.80;33.78;;;;;;;18.91;41.94;91792.81;6087190;23;20025;-93
2023/10/19 09:56:41;;;;;;;76.60;37.80;;;;;;;18.91;41.63;91790.09;6155410;23;20084;-91
2023/10/19 09:59:11;;;;;;;84.53;31.77;;;;;;;18.90;41.98;91785.16;6163188;23;20025;-93
2023/10/19 10:02:11;;;;;;;117.57;61.65;;;;;;;18.92;41.68;91788.09;6139864;23;20017;-92
2023/10/19 10:04:48;;;;;;;89.47;35.83;;;;;;;18.91;41.86;91770.94;6169409;23;20017;-93
2023/10/19 10:07:15;;;;;;;91.60;38.47;;;;;;;18.88;41.17;91765.81;6156265;23;20013;-91
2023/10/19 10:09:45;;;;;;;79.30;33.45;;;;;;;18.88;42.00;91774.75;6129103;23;20079;-91
2023/10/19 10:12:18;;;;;;;62.72;30.08;;;;;;;18.88;42.79;91768.56;6126813;23;20056;-93
2023/10/19 10:15:08;;;;;;;57.90;29.13;;;;;;;18.87;42.35;91767.84;6097003;23;20025;-91
2023/10/19 10:17:35;;;;;;;57.73;27.60;;;;;;;18.88;42.50;91766.56;6132144;23;20013;-91
2023/10/19 10:20:18;;;;;;;44.13;25.85;;;;;;;18.88;42.73;91769.28;6130136;23;20013;-91
2023/10/19 10:22:44;;;;;;;46.50;25.10;;;;;;;18.91;42.30;91756.50;6157799;23;20025;-93
2023/10/19 10:25:28;;;;;;;40.90;23.25;;;;;;;18.91;42.86;91756.50;6154718;23;20380;-92
2023/10/19 10:27:54;;;;;;;54.75;28.48;;;;;;;18.99;41.91;91755.19;6163403;23;20095;-92
2023/10/19 10:30:20;;;;;;;151.75;120.10;;;;;;;18.91;42.17;91761.97;6133524;23;20373;-91
2023/10/19 10:32:48;;;;;;;48.75;29.20;;;;;;;18.90;42.14;91763.25;6156895;23;20045;-92
2023/10/19 10:35:52;;;;;;;57.65;31.67;;;;;;;18.92;42.27;91753.22;6205435;23;20326;-91
2023/10/19 10:38:17;;;;;;;40.53;28.65;;;;;;;18.92;41.96;91750.47;6069962;23;20022;-91
2023/10/19 10:40:45;;;;;;;45.03;26.65;;;;;;;18.93;41.99;91751.94;6045453;23;20022;-91
2023/10/19 10:43:11;;;;;;;46.70;25.73;;;;;;;18.96;42.29;91755.56;6045412;23;20022;-93
2023/10/19 10:45:37;;;;;;;39.30;22.50;;;;;;;18.96;42.06;91747.38;6044166;23;20018;-92
2023/10/19 10:48:03;;;;;;;31.45;20.58;;;;;;;18.96;42.80;91734.41;6043547;23;20019;-92
2023/10/19 10:50:29;;;;;;;35.63;20.70;;;;;;;18.94;42.79;91728.75;6044758;23;20022;-92
2023/10/19 10:52:57;;;;;;;34.55;20.00;;;;;;;18.96;42.44;91728.94;6045025;23;20077;-92
2023/10/19 10:55:23;;;;;;;32.28;20.65;;;;;;;18.95;42.80;91724.72;6040258;23;20030;-92
2023/10/19 10:57:49;;;;;;;30.20;18.45;;;;;;;18.96;42.87;91722.72;6030512;23;20492;-92
2023/10/19 11:00:20;;;;;;;27.75;17.92;;;;;;;18.93;42.77;91718.34;6039846;23;20070;-93
2023/10/19 11:02:47;;;;;;;30.08;19.52;;;;;;;18.94;42.41;91719.81;6066349;23;20098;-90
2023/10/19 11:05:14;;;;;;;44.33;23.67;;;;;;;18.94;43.04;91717.78;6040073;23;20022;-89
2023/10/19 11:07:40;;;;;;;49.05;24.35;;;;;;;18.96;43.19;91712.50;6042460;23;20018;-90
2023/10/19 11:10:06;;;;;;;38.42;20.05;;;;;;;18.91;44.37;91710.69;6066691;23;20034;-93
2023/10/19 11:12:32;;;;;;;70.13;24.80;;;;;;;18.88;44.53;91700.13;6084097;23;20021;-91
2023/10/19 11:15:10;;;;;;;71.75;29.33;;;;;;;18.82;44.75;91690.13;6158973;23;20044;-92
2023/10/19 11:17:42;;;;;;;63.78;27.80;;;;;;;18.77;44.92;91680.09;6150053;23;20076;-93
2023/10/19 11:20:20;;;;;;;63.78;27.52;;;;;;;18.80;44.83;91679.00;6157162;23;20021;-94
2023/10/19 11:22:50;;;;;;;76.38;28.80;;;;;;;18.79;45.61;91672.06;6195212;23;20112;-93
2023/10/19 11:25:20;;;;;;;121.13;39.88;;;;;;;18.77;45.87;91668.41;6183943;23;20040;-91
2023/10/19 11:27:47;;;;;;;145.80;63.53;;;;;;;18.79;46.13;91665.88;6164621;23;20088;-93
2023/10/19 11:30:13;;;;;;;123.03;50.88;;;;;;;18.77;45.97;91658.19;6181034;23;20056;-92
2023/10/19 11:32:45;;;;;;;137.18;50.60;;;;;;;18.74;45.94;91666.78;6165088;23;20028;-93
2023/10/19 11:35:20;;;;;;;135.02;52.78;;;;;;;18.76;45.44;91653.28;6124384;23;20092;-91
2023/10/19 11:37:47;;;;;;;142.30;61.28;;;;;;;18.77;46.21;91662.94;6134316;23;20048;-93